Aberdeen Gardens, Washington
Current Conditions -  °F | °C
As of 6:40 PM on Thursday 27 Nov 2014 (Local Time) from KHQM Reporting Station
Light Rain Light Rain  
Wind Chill: 55°   Ceiling: 1100
Heat Index: 55°   Visibility: 3mi
Dew Point: 54°   Wind: 18mph
Humidity: 96%   Direction: 190°S
Pressure: 29.77"   Gusts: NA
Location:  47.1445°N, 123.771°W
Report Text: KHQM 280240Z AUTO 19016KT 3SM -RA BR BKN011 BKN021 OVC036 13/12 A2977 RMK AO2 PK WND 21026/0230 RAB29 P0001 T01280122
Loading
Personal Weather Stations






























Interactive Weather Map New forecast layout! Learn more

10-Day Weather Forecast

Advertisements
Track Severe Weather on mobile